Hovedside
METAR-TAF:

METAR-TAF

Lufthavner :

Trondheim lufthavn. Værnes

Trondheim, Norge

breddegrad: 63-28N, lengdegrad: 010-56E, høyde over havet: 1 m

Gjeldene værobservasjon

Denne rapporten ble laget for 28 minutter siden, klokken 18:20 UTC
Vind 5 kt fra Øst
Temperatur -5°C
Luftfuktighet 100%
Trykk 1038 hPa
Sikt 10 km eller mer
Få skyer i en høyde av 1400 ft

METAR: ENVA 191820Z 10005KT 9999 FEW014 M05/M05 Q1038 NOSIG RMK WIND 670FT 17005KT

Tid: 19:48 (18:48 UTC)

Varsel

Varsel gyldig fra 19. klokken 18 UTC til 20. klokken 18 UTC
Vind 7 kt fra Øst-sørøst
Sikt 10 km eller mer
Få skyer i en høyde av 1500 ft
Sannsynlighet 30% :
Midlertidig
fra 19. klokken 18 UTC til 20. klokken 12 UTC
Brutte skyer i en høyde av 1200 ft

TAF: ENVA 1918/2018 11007KT 9999 FEW015 PROB30 TEMPO 1918/2012 BKN012

Værobservasjoner og værvarsel for over 4000 flyplasser (METAR- og TAF-rapporter).

Tilgjengelige stasjoner er representert av de røde og gule prikkene på kartet.

Hold musepekeren over prikken for å se navnet på stasjonen.

Klikk så for å se værobservasjoner og -varsler.

For å forandre kartet kan du klikke på den grønne knappen med svart kryss for å zoome inn, på den grønne knappen med strek for å zoome ut, eller på de grønne pilene for å se tilstøtende kart.


METAR-TAF: